Time;durP1;ratioP1;P1;durP2;ratioP2;P2;SDS_P1;SDS_P2;PMS_P1;PMS_P2;Temp;Humidity;BMP_temperature;BMP_pressure;BME280_temperature;BME280_humidity;BME280_pressure;Samples;Min_cycle;Max_cycle;Signal;HPM_P1;HPM_P2
2023/11/19 00:02:32;;;;;;;0.73;0.68;;;;;;;4.81;100.00;98294.00;15290537;19;20013;-80
2023/11/19 00:07:56;;;;;;;0.70;0.70;;;;;;;4.79;100.00;98296.75;15288966;19;20625;-80
2023/11/19 00:13:21;;;;;;;1.25;0.65;;;;;;;4.80;100.00;98294.97;15025370;19;5000822;-79
2023/11/19 00:18:49;;;;;;;0.85;0.70;;;;;;;4.85;100.00;98288.25;15292760;19;20357;-79
2023/11/19 00:24:16;;;;;;;0.80;0.70;;;;;;;4.94;100.00;98295.50;15294890;19;20022;-79
2023/11/19 00:29:42;;;;;;;1.55;0.63;;;;;;;4.93;100.00;98276.94;15296478;19;20823;-78
2023/11/19 00:35:10;;;;;;;0.50;0.50;;;;;;;5.02;100.00;98277.97;15291345;19;20048;-81
2023/11/19 00:40:34;;;;;;;0.50;0.50;;;;;;;5.03;100.00;98253.84;15296166;19;20541;-79
2023/11/19 00:45:59;;;;;;;0.35;0.35;;;;;;;5.11;100.00;98247.84;15291770;19;20006;-79
2023/11/19 00:51:26;;;;;;;0.52;0.50;;;;;;;5.22;100.00;98239.75;15304936;19;20418;-78
2023/11/19 00:56:52;;;;;;;0.30;0.30;;;;;;;5.23;100.00;98225.41;15336488;19;20007;-77
2023/11/19 01:02:18;;;;;;;0.30;0.30;;;;;;;5.39;100.00;98213.38;15298437;19;20030;-77
2023/11/19 01:07:47;;;;;;;0.40;0.40;;;;;;;5.41;100.00;98192.75;15277952;19;20015;-77
2023/11/19 01:13:13;;;;;;;0.90;0.30;;;;;;;5.39;100.00;98166.16;15285720;19;20479;-78
2023/11/19 01:18:38;;;;;;;0.30;0.30;;;;;;;5.40;100.00;98165.19;15280196;19;20054;-78
2023/11/19 01:24:09;;;;;;;0.35;0.30;;;;;;;5.45;100.00;98185.28;15289467;19;20350;-78
2023/11/19 01:29:34;;;;;;;0.20;0.20;;;;;;;5.50;100.00;98165.19;15285404;19;20018;-77
2023/11/19 01:35:00;;;;;;;0.20;0.20;;;;;;;5.50;100.00;98145.66;15285722;19;20010;-78
2023/11/19 01:40:30;;;;;;;0.20;0.20;;;;;;;5.55;100.00;98154.09;15282399;19;20547;-77
2023/11/19 01:45:54;;;;;;;0.30;0.30;;;;;;;5.62;100.00;98151.75;15287912;19;20026;-77
2023/11/19 01:51:20;;;;;;;0.20;0.20;;;;;;;5.70;100.00;98152.75;15285054;19;20032;-77
2023/11/19 01:56:47;;;;;;;0.13;0.13;;;;;;;5.76;100.00;98145.19;15286342;19;21226;-77
2023/11/19 02:02:13;;;;;;;0.20;0.20;;;;;;;5.84;100.00;98129.28;15284741;19;20022;-78
2023/11/19 02:07:46;;;;;;;1.55;0.20;;;;;;;5.83;100.00;98090.16;15284221;19;20415;-79
2023/11/19 02:13:14;;;;;;;0.20;0.20;;;;;;;5.93;100.00;98104.38;15286813;19;20014;-77
2023/11/19 02:18:39;;;;;;;1.10;0.10;;;;;;;5.98;100.00;98085.25;15274990;19;20022;-77
2023/11/19 02:24:08;;;;;;;0.60;0.20;;;;;;;5.76;100.00;98063.16;15257928;19;20015;-76
2023/11/19 02:29:43;;;;;;;0.20;0.20;;;;;;;5.69;100.00;98052.16;15247139;19;20022;-75
2023/11/19 02:35:09;;;;;;;2.03;0.22;;;;;;;5.63;100.00;98035.84;15247524;19;20014;-76
2023/11/19 02:40:35;;;;;;;0.20;0.20;;;;;;;5.61;100.00;98035.13;15240545;19;20018;-76
2023/11/19 02:46:04;;;;;;;0.38;0.35;;;;;;;5.57;100.00;98023.06;15247868;19;20018;-76
2023/11/19 02:51:33;;;;;;;0.70;0.50;;;;;;;5.52;100.00;98026.16;15272399;19;20336;-77
2023/11/19 02:57:01;;;;;;;0.20;0.20;;;;;;;5.49;100.00;98021.06;15281263;19;20053;-77
2023/11/19 03:02:33;;;;;;;0.30;0.30;;;;;;;5.49;100.00;98010.38;15275390;19;20062;-75
2023/11/19 03:07:59;;;;;;;0.35;0.30;;;;;;;5.51;100.00;98013.78;15254520;19;20069;-75
2023/11/19 03:13:25;;;;;;;0.10;0.10;;;;;;;5.50;100.00;98006.72;15255546;19;20019;-76
2023/11/19 03:18:52;;;;;;;0.57;0.28;;;;;;;5.53;100.00;98001.09;15253643;19;20013;-75
2023/11/19 03:24:18;;;;;;;0.20;0.20;;;;;;;5.57;100.00;98007.84;15258788;19;20018;-76
2023/11/19 03:29:43;;;;;;;0.32;0.20;;;;;;;5.59;100.00;98010.38;15260668;19;20588;-77
2023/11/19 03:35:11;;;;;;;2.38;0.20;;;;;;;5.60;100.00;98006.72;15260117;19;20497;-77
2023/11/19 03:40:47;;;;;;;;;;;;;;;;;;;;;
2023/11/19 03:46:14;;;;;;;0.63;0.20;;;;;;;5.66;100.00;97990.13;15282124;19;20050;-77
2023/11/19 03:51:42;;;;;;;0.30;0.22;;;;;;;5.71;100.00;97994.06;15300012;19;20078;-78
2023/11/19 03:57:20;;;;;;;0.20;0.20;;;;;;;5.74;100.00;98000.97;14786393;19;10000962;-77
2023/11/19 04:02:46;;;;;;;0.20;0.20;;;;;;;5.75;100.00;97988.47;12013453;19;10001964;-79
2023/11/19 04:08:14;;;;;;;0.55;0.20;;;;;;;5.78;100.00;98001.50;15308236;19;20018;-78
2023/11/19 04:13:38;;;;;;;0.20;0.20;;;;;;;5.80;100.00;97987.03;15289931;19;20014;-77
2023/11/19 04:19:03;;;;;;;0.20;0.20;;;;;;;5.82;100.00;97978.88;15280692;19;20031;-76
2023/11/19 04:24:30;;;;;;;1.15;0.35;;;;;;;5.83;100.00;97976.03;15287549;19;20395;-77
2023/11/19 04:29:55;;;;;;;0.40;0.30;;;;;;;5.86;100.00;97972.25;15288134;19;20079;-77
2023/11/19 04:35:20;;;;;;;0.57;0.38;;;;;;;5.89;100.00;97979.16;15291730;19;20015;-79
2023/11/19 04:40:48;;;;;;;0.30;0.30;;;;;;;5.90;100.00;97967.47;15293280;19;20011;-79
2023/11/19 04:46:13;;;;;;;1.58;0.40;;;;;;;5.94;100.00;97950.16;15292089;19;20477;-79
2023/11/19 04:51:38;;;;;;;0.30;0.30;;;;;;;5.95;100.00;97949.16;15290301;19;20022;-79
2023/11/19 04:57:06;;;;;;;0.30;0.30;;;;;;;5.98;100.00;97948.88;15294782;19;20351;-78
2023/11/19 05:02:31;;;;;;;2.28;0.38;;;;;;;6.00;100.00;97939.75;15299532;19;20030;-78
2023/11/19 05:07:56;;;;;;;0.25;0.22;;;;;;;6.02;100.00;97939.63;15298379;19;20069;-78
2023/11/19 05:13:23;;;;;;;0.30;0.28;;;;;;;6.05;100.00;97949.19;15300678;19;20035;-77
2023/11/19 05:18:47;;;;;;;0.20;0.20;;;;;;;6.07;100.00;97936.50;15297567;19;20022;-78
2023/11/19 05:24:14;;;;;;;0.30;0.30;;;;;;;6.09;100.00;97947.91;15295183;19;20022;-78
2023/11/19 05:29:43;;;;;;;0.45;0.30;;;;;;;6.12;100.00;97937.75;15299037;19;20035;-78
2023/11/19 05:35:08;;;;;;;0.20;0.20;;;;;;;6.13;100.00;97931.44;15299195;19;20019;-78
2023/11/19 05:40:33;;;;;;;0.30;0.30;;;;;;;6.20;100.00;97921.00;15286043;19;20011;-78
2023/11/19 05:46:02;;;;;;;0.75;0.40;;;;;;;6.24;100.00;97908.16;15282881;19;20022;-77
2023/11/19 05:51:33;;;;;;;0.75;0.30;;;;;;;6.30;100.00;97912.91;15282235;19;20015;-77
2023/11/19 05:56:58;;;;;;;0.32;0.28;;;;;;;6.33;100.00;97928.69;15276500;19;20358;-78
2023/11/19 06:02:27;;;;;;;0.20;0.20;;;;;;;6.44;100.00;97941.03;15281761;19;20007;-76
2023/11/19 06:07:51;;;;;;;0.35;0.20;;;;;;;6.50;100.00;97959.16;15280780;19;20354;-77
2023/11/19 06:13:17;;;;;;;0.65;0.20;;;;;;;6.59;100.00;97960.13;15283899;19;20019;-77
2023/11/19 06:18:45;;;;;;;0.30;0.20;;;;;;;6.66;100.00;97957.72;15271925;19;20010;-77
2023/11/19 06:24:10;;;;;;;0.30;0.30;;;;;;;6.73;100.00;97946.28;15288008;19;20026;-78
2023/11/19 06:29:42;;;;;;;0.50;0.30;;;;;;;6.81;100.00;97947.34;15281429;19;20357;-79
2023/11/19 06:35:11;;;;;;;0.25;0.20;;;;;;;6.83;100.00;97950.72;15293514;19;20047;-78
2023/11/19 06:40:35;;;;;;;0.20;0.20;;;;;;;6.79;100.00;97928.75;15299042;19;20024;-78
2023/11/19 06:46:00;;;;;;;1.17;0.30;;;;;;;6.77;100.00;97936.94;15303082;19;20482;-77
2023/11/19 06:51:27;;;;;;;2.17;0.20;;;;;;;6.81;100.00;97933.97;15300327;19;20096;-79
2023/11/19 06:56:51;;;;;;;0.30;0.30;;;;;;;6.84;100.00;97928.31;15301848;19;20018;-78
2023/11/19 07:02:16;;;;;;;0.57;0.13;;;;;;;6.93;100.00;97940.78;15290091;19;20085;-78
2023/11/19 07:07:48;;;;;;;0.20;0.20;;;;;;;7.05;100.00;97938.75;15331836;19;20014;-77
2023/11/19 07:13:13;;;;;;;0.25;0.25;;;;;;;7.15;100.00;97944.91;15336789;19;20017;-79
2023/11/19 07:18:38;;;;;;;0.30;0.30;;;;;;;7.15;100.00;97949.41;15283396;19;20477;-77
2023/11/19 07:24:05;;;;;;;0.10;0.10;;;;;;;7.19;100.00;97948.94;15299319;19;20066;-79
2023/11/19 07:29:29;;;;;;;0.52;0.30;;;;;;;7.29;100.00;97945.38;15294160;19;20469;-79
2023/11/19 07:34:56;;;;;;;0.30;0.30;;;;;;;7.40;100.00;97980.81;15294856;19;20391;-78
2023/11/19 07:40:24;;;;;;;1.30;0.30;;;;;;;7.46;100.00;97973.19;15297980;19;20018;-80
2023/11/19 07:45:50;;;;;;;0.68;0.30;;;;;;;7.55;100.00;97966.91;15294354;19;20078;-80
2023/11/19 07:51:15;;;;;;;2.03;0.45;;;;;;;7.66;100.00;97972.03;15298784;19;20010;-80
2023/11/19 07:56:43;;;;;;;2.60;0.38;;;;;;;7.77;100.00;97954.84;15287439;19;20018;-80
2023/11/19 08:02:09;;;;;;;1.05;0.30;;;;;;;7.89;100.00;97963.50;15288141;19;20014;-80
2023/11/19 08:07:33;;;;;;;0.90;0.50;;;;;;;8.02;100.00;97996.13;15285961;19;20090;-80
2023/11/19 08:13:00;;;;;;;0.45;0.40;;;;;;;8.13;100.00;97980.78;15284750;19;20104;-79
2023/11/19 08:18:25;;;;;;;1.10;0.50;;;;;;;8.18;100.00;97973.94;15292657;19;20031;-78
2023/11/19 08:23:49;;;;;;;1.20;0.47;;;;;;;8.25;100.00;97970.59;15299669;19;20070;-78
2023/11/19 08:29:17;;;;;;;1.45;0.60;;;;;;;8.28;100.00;97956.88;15299083;19;20014;-77
2023/11/19 08:34:42;;;;;;;1.23;0.50;;;;;;;8.29;100.00;97959.41;15291910;19;20014;-79
2023/11/19 08:40:07;;;;;;;0.90;0.40;;;;;;;8.40;100.00;97954.78;15279471;19;20015;-77
2023/11/19 08:45:34;;;;;;;2.47;0.80;;;;;;;8.54;100.00;97940.78;15285629;19;20093;-77
2023/11/19 08:50:59;;;;;;;1.13;0.40;;;;;;;8.72;100.00;97945.25;15028542;19;5001531;-78
2023/11/19 08:56:24;;;;;;;1.15;0.45;;;;;;;8.88;100.00;97947.97;15290295;19;20094;-78
2023/11/19 09:01:51;;;;;;;0.65;0.30;;;;;;;9.00;100.00;97955.72;15295547;19;20017;-77
2023/11/19 09:07:16;;;;;;;1.42;0.40;;;;;;;9.12;100.00;97970.56;15296050;19;20007;-78
2023/11/19 09:12:40;;;;;;;0.50;0.30;;;;;;;9.23;100.00;97962.19;15294452;19;20500;-78
2023/11/19 09:18:08;;;;;;;0.52;0.28;;;;;;;9.41;100.00;97958.53;15293735;19;20010;-79
2023/11/19 09:23:36;;;;;;;0.20;0.20;;;;;;;9.57;100.00;97946.97;15294825;19;20007;-77
2023/11/19 09:29:00;;;;;;;1.92;0.35;;;;;;;9.71;100.00;97946.31;15295710;19;20010;-78
2023/11/19 09:34:35;;;;;;;1.63;0.50;;;;;;;9.84;100.00;97950.34;15291117;19;20028;-77
2023/11/19 09:40:01;;;;;;;1.65;0.50;;;;;;;9.98;100.00;97946.13;15291440;19;20022;-78
2023/11/19 09:45:26;;;;;;;0.80;0.28;;;;;;;10.12;100.00;97940.06;15291544;19;20046;-78
2023/11/19 09:50:55;;;;;;;2.70;0.90;;;;;;;10.26;100.00;97916.97;15291430;19;20082;-78
2023/11/19 09:56:22;;;;;;;2.72;0.60;;;;;;;10.38;100.00;97916.66;15293734;19;20023;-78
2023/11/19 10:01:49;;;;;;;3.08;0.63;;;;;;;10.53;100.00;97895.22;15302394;19;20432;-77
2023/11/19 10:07:16;;;;;;;3.97;1.15;;;;;;;10.76;100.00;97885.34;15306597;19;20018;-78
2023/11/19 10:12:46;;;;;;;8.97;1.80;;;;;;;11.03;100.00;97850.03;15302357;19;20032;-78
2023/11/19 10:18:15;;;;;;;7.70;1.70;;;;;;;11.13;100.00;97814.72;15319411;19;20506;-77
2023/11/19 10:23:54;;;;;;;7.20;1.58;;;;;;;11.12;100.00;97729.47;15298295;19;20077;-77
2023/11/19 10:29:22;;;;;;;5.57;1.70;;;;;;;11.14;100.00;97732.84;15294301;19;20078;-77
2023/11/19 10:34:53;;;;;;;7.97;1.83;;;;;;;11.20;100.00;97715.94;15294998;19;20402;-78
2023/11/19 10:40:21;;;;;;;7.93;1.92;;;;;;;11.17;100.00;97692.88;15291329;19;20011;-76
2023/11/19 10:45:46;;;;;;;6.07;1.70;;;;;;;11.20;100.00;97689.00;15285946;19;20014;-77
2023/11/19 10:51:12;;;;;;;9.00;2.00;;;;;;;11.31;100.00;97728.13;15287203;19;20078;-77
2023/11/19 10:56:40;;;;;;;11.23;2.25;;;;;;;11.35;100.00;97734.84;15286444;19;20014;-77
2023/11/19 11:02:09;;;;;;;9.32;1.85;;;;;;;11.23;100.00;97732.59;15285676;19;20544;-77
2023/11/19 11:07:35;;;;;;;5.72;1.60;;;;;;;11.22;100.00;97713.91;15301985;19;20115;-78
2023/11/19 11:13:06;;;;;;;6.32;1.70;;;;;;;11.22;100.00;97703.13;15296399;19;20010;-77
2023/11/19 11:18:30;;;;;;;8.60;1.70;;;;;;;11.24;100.00;97728.03;15275938;19;20014;-78
2023/11/19 11:24:13;;;;;;;6.53;1.50;;;;;;;11.38;100.00;97753.38;15292024;19;20385;-78
2023/11/19 11:29:47;;;;;;;5.85;1.70;;;;;;;11.58;100.00;97734.81;15285884;19;19998;-78
2023/11/19 11:35:27;;;;;;;6.45;1.50;;;;;;;11.80;100.00;97732.19;15282021;19;20018;-78
2023/11/19 11:40:51;;;;;;;5.38;1.58;;;;;;;11.90;100.00;97738.16;15285780;19;20011;-78
2023/11/19 11:46:46;;;;;;;5.88;1.60;;;;;;;11.87;100.00;97715.06;15283809;19;20089;-77
2023/11/19 11:52:15;;;;;;;6.97;1.58;;;;;;;11.72;100.00;97698.88;15285079;19;20053;-78
2023/11/19 11:57:41;;;;;;;6.43;1.50;;;;;;;11.68;100.00;97700.28;15293511;19;20014;-77
2023/11/19 12:03:06;;;;;;;4.78;1.70;;;;;;;11.70;100.00;97721.69;15282191;19;20014;-77
2023/11/19 12:08:37;;;;;;;7.18;1.80;;;;;;;11.77;100.00;97719.06;15286520;19;20023;-78
2023/11/19 12:14:06;;;;;;;6.75;1.73;;;;;;;11.81;100.00;97723.09;15290807;19;20355;-78
2023/11/19 12:19:32;;;;;;;6.30;1.48;;;;;;;11.82;100.00;97724.72;15287469;19;20040;-78
2023/11/19 12:24:59;;;;;;;6.28;1.83;;;;;;;11.80;100.00;97716.84;15283916;19;20021;-78
2023/11/19 12:30:26;;;;;;;6.28;1.75;;;;;;;11.75;100.00;97713.88;15284962;19;20023;-78
2023/11/19 12:35:51;;;;;;;6.60;1.77;;;;;;;11.70;100.00;97714.41;15281459;19;20019;-77
2023/11/19 12:41:23;;;;;;;6.18;1.63;;;;;;;11.81;100.00;97717.69;15283862;19;20021;-77
2023/11/19 12:46:49;;;;;;;7.63;1.77;;;;;;;11.84;100.00;97701.94;15281581;19;20085;-77
2023/11/19 12:52:17;;;;;;;7.70;1.70;;;;;;;11.94;100.00;97701.63;15286407;19;20018;-78
2023/11/19 12:57:51;;;;;;;7.28;2.03;;;;;;;12.06;100.00;97695.78;15286214;19;20014;-80
2023/11/19 13:03:34;;;;;;;10.13;1.92;;;;;;;12.15;100.00;97694.69;15282874;19;20187;-78
2023/11/19 13:09:00;;;;;;;6.38;1.70;;;;;;;12.24;100.00;97715.16;15307197;19;20109;-78
2023/11/19 13:14:42;;;;;;;9.55;2.03;;;;;;;12.25;100.00;97703.31;15288931;19;20022;-78
2023/11/19 13:20:06;;;;;;;9.10;1.90;;;;;;;12.07;100.00;97690.22;15287882;19;20014;-78
2023/11/19 13:25:34;;;;;;;6.25;1.73;;;;;;;11.93;100.00;97681.09;15287545;19;20401;-78
2023/11/19 13:31:01;;;;;;;4.63;1.42;;;;;;;11.90;100.00;97678.78;15298234;19;20014;-78
2023/11/19 13:36:26;;;;;;;6.88;1.75;;;;;;;12.07;100.00;97673.16;15287498;19;20074;-52
2023/11/19 13:41:50;;;;;;;5.43;1.70;;;;;;;11.99;100.00;97680.38;15272720;19;20015;-50
2023/11/19 13:47:33;;;;;;;6.07;1.77;;;;;;;11.80;100.00;97667.44;15271968;19;20468;-54
2023/11/19 13:52:58;;;;;;;7.53;1.98;;;;;;;11.75;100.00;97675.25;15269828;19;20014;-52
2023/11/19 13:58:24;;;;;;;5.97;1.80;;;;;;;11.67;100.00;97673.47;15267404;19;20022;-52
2023/11/19 14:03:51;;;;;;;6.97;1.70;;;;;;;11.72;100.00;97661.09;15267027;19;20020;-52
2023/11/19 14:09:16;;;;;;;10.05;1.98;;;;;;;11.69;100.00;97657.94;15271682;19;20102;-53
2023/11/19 14:14:41;;;;;;;5.18;1.50;;;;;;;11.65;100.00;97649.38;15273019;19;20078;-52
2023/11/19 14:20:12;;;;;;;6.30;1.90;;;;;;;11.49;100.00;97641.47;15270330;19;20035;-54
2023/11/19 14:25:37;;;;;;;7.10;1.83;;;;;;;11.44;100.00;97643.91;15272437;19;20028;-49
2023/11/19 14:31:02;;;;;;;8.93;2.30;;;;;;;11.28;100.00;97655.72;15260869;19;20017;-51
2023/11/19 14:36:36;;;;;;;8.63;1.95;;;;;;;11.24;100.00;97648.00;15268507;19;20320;-52
2023/11/19 14:42:04;;;;;;;7.20;1.70;;;;;;;11.17;100.00;97638.13;15269622;19;20017;-53
2023/11/19 14:47:29;;;;;;;5.57;1.80;;;;;;;11.13;100.00;97631.41;15286590;19;20326;-52
2023/11/19 14:52:56;;;;;;;7.60;1.92;;;;;;;11.08;100.00;97632.84;15279384;19;20010;-50
2023/11/19 14:58:21;;;;;;;8.70;2.00;;;;;;;11.02;100.00;97648.91;15277069;19;20364;-58
2023/11/19 15:03:47;;;;;;;8.80;2.10;;;;;;;10.96;100.00;97642.38;15268141;19;20032;-51
2023/11/19 15:09:17;;;;;;;8.30;2.45;;;;;;;10.75;100.00;97645.75;15274584;19;20732;-54
2023/11/19 15:14:43;;;;;;;7.30;2.10;;;;;;;10.58;100.00;97661.22;15276565;19;20896;-54
2023/11/19 15:20:08;;;;;;;10.45;2.17;;;;;;;10.53;100.00;97663.59;15270628;19;20105;-54
2023/11/19 15:25:36;;;;;;;9.23;2.08;;;;;;;10.53;100.00;97658.22;15269902;19;20029;-53
2023/11/19 15:31:00;;;;;;;9.07;2.00;;;;;;;10.51;100.00;97679.13;15270294;19;20904;-56
2023/11/19 15:36:25;;;;;;;10.63;2.33;;;;;;;10.53;100.00;97682.47;15269040;19;20756;-52
2023/11/19 15:41:52;;;;;;;7.55;1.95;;;;;;;10.52;100.00;97684.31;15272774;19;20016;-56
2023/11/19 15:47:17;;;;;;;7.90;2.03;;;;;;;10.57;100.00;97668.47;15274491;19;20022;-54
2023/11/19 15:52:44;;;;;;;8.93;1.98;;;;;;;10.67;100.00;97678.16;15270716;19;20039;-55
2023/11/19 15:58:11;;;;;;;7.05;2.05;;;;;;;10.69;100.00;97674.25;15272729;19;20031;-57
2023/11/19 16:03:37;;;;;;;6.72;1.80;;;;;;;10.70;100.00;97689.41;15007299;19;5001026;-51
2023/11/19 16:09:05;;;;;;;8.90;2.10;;;;;;;10.72;100.00;97691.91;15266707;19;20017;-55
2023/11/19 16:14:32;;;;;;;8.75;2.00;;;;;;;10.67;100.00;97700.53;15273080;19;20730;-56
2023/11/19 16:19:57;;;;;;;7.55;2.00;;;;;;;10.61;100.00;97703.97;15266059;19;20418;-54
2023/11/19 16:25:21;;;;;;;8.80;1.95;;;;;;;10.56;100.00;97704.50;15267496;19;20022;-53
2023/11/19 16:30:48;;;;;;;7.45;2.10;;;;;;;10.51;100.00;97701.50;15268216;19;20010;-54
2023/11/19 16:36:14;;;;;;;9.27;2.10;;;;;;;10.47;100.00;97687.56;15266399;19;20010;-52
2023/11/19 16:41:40;;;;;;;8.90;2.20;;;;;;;10.46;100.00;97703.91;15258481;19;20021;-55
2023/11/19 16:47:07;;;;;;;7.78;2.22;;;;;;;10.46;100.00;97699.34;15262885;19;20010;-51
2023/11/19 16:52:34;;;;;;;7.30;1.80;;;;;;;10.43;100.00;97693.47;15263650;19;20014;-51
2023/11/19 16:57:59;;;;;;;7.68;2.05;;;;;;;10.41;100.00;97712.50;15272269;19;20010;-55
2023/11/19 17:03:26;;;;;;;5.88;1.67;;;;;;;10.35;100.00;97706.97;15266360;19;20020;-50
2023/11/19 17:08:51;;;;;;;4.20;1.45;;;;;;;10.25;100.00;97709.88;15265248;19;20017;-54
2023/11/19 17:14:17;;;;;;;5.72;1.77;;;;;;;10.20;100.00;97721.19;15264050;19;20014;-55
2023/11/19 17:19:47;;;;;;;6.57;1.80;;;;;;;10.15;100.00;97724.41;15266921;19;20018;-52
2023/11/19 17:25:13;;;;;;;7.05;1.88;;;;;;;10.15;100.00;97723.53;15263191;19;20568;-53
2023/11/19 17:30:39;;;;;;;6.65;1.83;;;;;;;10.13;100.00;97725.56;15263130;19;20035;-53
2023/11/19 17:36:14;;;;;;;5.78;1.52;;;;;;;10.14;100.00;97711.97;15263112;19;20021;-53
2023/11/19 17:41:45;;;;;;;5.65;1.50;;;;;;;10.16;100.00;97715.31;15235793;19;20526;-49
2023/11/19 17:47:10;;;;;;;5.23;1.67;;;;;;;10.13;100.00;97715.66;15252838;19;20528;-47
2023/11/19 17:52:37;;;;;;;5.10;1.40;;;;;;;10.10;100.00;97729.47;15259691;19;20029;-48
2023/11/19 17:58:02;;;;;;;5.85;1.60;;;;;;;10.09;100.00;97730.47;15264459;19;20014;-48
2023/11/19 18:03:26;;;;;;;7.00;1.65;;;;;;;10.08;100.00;97728.78;15259986;19;20502;-49
2023/11/19 18:08:54;;;;;;;6.22;1.83;;;;;;;10.08;100.00;97738.72;14753000;19;10000090;-50
2023/11/19 18:14:19;;;;;;;6.88;1.83;;;;;;;10.05;100.00;97741.75;15264112;19;20371;-50
2023/11/19 18:19:44;;;;;;;6.45;1.70;;;;;;;10.06;100.00;97749.66;15264913;19;20078;-47
2023/11/19 18:25:13;;;;;;;6.03;1.42;;;;;;;10.10;100.00;97748.31;15271996;19;20223;-50
2023/11/19 18:30:38;;;;;;;7.00;1.80;;;;;;;10.08;100.00;97741.41;15276262;19;20019;-47
2023/11/19 18:36:02;;;;;;;5.50;1.50;;;;;;;10.08;100.00;97734.16;15279024;19;20029;-49
2023/11/19 18:41:29;;;;;;;4.72;1.50;;;;;;;10.10;100.00;97737.53;15274637;19;20018;-48
2023/11/19 18:46:55;;;;;;;4.63;1.33;;;;;;;10.11;100.00;97741.91;15253748;19;20018;-48
2023/11/19 18:52:21;;;;;;;4.68;1.25;;;;;;;10.12;100.00;97743.59;15269093;19;20016;-50
2023/11/19 18:57:48;;;;;;;8.07;1.60;;;;;;;10.09;100.00;97743.09;15276684;19;20019;-49
2023/11/19 19:03:16;;;;;;;4.85;1.35;;;;;;;10.09;100.00;97746.63;15266992;19;20015;-49
2023/11/19 19:08:43;;;;;;;3.92;1.40;;;;;;;10.06;100.00;97741.56;15275738;19;20033;-47
2023/11/19 19:14:11;;;;;;;4.07;1.83;;;;;;;10.02;100.00;97740.28;15275520;19;20022;-48
2023/11/19 19:19:35;;;;;;;5.22;1.80;;;;;;;9.96;100.00;97727.50;15273130;19;20014;-47
2023/11/19 19:25:00;;;;;;;3.33;1.20;;;;;;;9.93;100.00;97735.94;15263204;19;20053;-53
2023/11/19 19:30:27;;;;;;;5.60;1.40;;;;;;;9.86;100.00;97736.63;15266065;19;20026;-48
2023/11/19 19:35:52;;;;;;;4.55;1.20;;;;;;;9.89;100.00;97734.59;15265574;19;20017;-48
2023/11/19 19:41:16;;;;;;;3.92;1.25;;;;;;;9.85;100.00;97734.13;15262387;19;20030;-51
2023/11/19 19:46:44;;;;;;;3.30;1.40;;;;;;;9.86;100.00;97725.03;15270194;19;20069;-52
2023/11/19 19:52:10;;;;;;;5.60;1.20;;;;;;;9.85;100.00;97732.25;15270455;19;21314;-49
2023/11/19 19:57:35;;;;;;;3.70;1.10;;;;;;;9.87;100.00;97738.31;15267197;19;20968;-49
2023/11/19 20:03:03;;;;;;;6.10;1.45;;;;;;;9.90;100.00;97741.66;15268462;19;20022;-50
2023/11/19 20:08:29;;;;;;;4.63;1.50;;;;;;;9.93;100.00;97744.84;15266952;19;20050;-49
2023/11/19 20:13:55;;;;;;;6.05;1.30;;;;;;;9.95;100.00;97739.28;15274081;19;20519;-49
2023/11/19 20:19:22;;;;;;;5.47;1.35;;;;;;;9.99;100.00;97743.31;15280762;19;20017;-53
2023/11/19 20:24:47;;;;;;;4.88;1.38;;;;;;;9.99;100.00;97746.84;15275576;19;20010;-51
2023/11/19 20:30:13;;;;;;;5.40;1.58;;;;;;;9.97;100.00;97740.78;15276193;19;20415;-55
2023/11/19 20:35:40;;;;;;;5.72;1.65;;;;;;;9.99;100.00;97741.47;15284024;19;20017;-50
2023/11/19 20:41:05;;;;;;;5.00;1.30;;;;;;;10.01;100.00;97738.59;15280989;19;20072;-51
2023/11/19 20:46:31;;;;;;;6.90;1.83;;;;;;;9.97;100.00;97732.72;15277602;19;20098;-49
2023/11/19 20:52:00;;;;;;;5.20;1.40;;;;;;;9.94;100.00;97737.59;15274552;19;20018;-49
2023/11/19 20:57:24;;;;;;;7.60;1.63;;;;;;;9.98;100.00;97747.00;15281973;19;20010;-53
2023/11/19 21:02:49;;;;;;;5.40;1.42;;;;;;;10.00;100.00;97728.84;15276080;19;20024;-51
2023/11/19 21:08:16;;;;;;;7.20;1.77;;;;;;;10.01;100.00;97717.88;15279406;19;20057;-52
2023/11/19 21:13:41;;;;;;;4.45;1.38;;;;;;;10.04;100.00;97716.72;15271522;19;20035;-51
2023/11/19 21:19:05;;;;;;;4.63;1.48;;;;;;;10.05;100.00;97718.41;15277520;19;20025;-49
2023/11/19 21:24:33;;;;;;;6.18;1.40;;;;;;;10.06;100.00;97725.44;15277041;19;20082;-49
2023/11/19 21:29:58;;;;;;;5.13;1.45;;;;;;;10.01;100.00;97733.22;15276785;19;20010;-49
2023/11/19 21:35:23;;;;;;;4.95;1.50;;;;;;;9.96;100.00;97730.19;15278521;19;20015;-52
2023/11/19 21:40:51;;;;;;;9.13;1.95;;;;;;;9.85;100.00;97734.94;15277565;19;20031;-51
2023/11/19 21:46:17;;;;;;;8.60;1.90;;;;;;;9.64;100.00;97748.13;15273946;19;20507;-51
2023/11/19 21:51:47;;;;;;;9.27;1.90;;;;;;;9.43;100.00;97752.22;15275202;19;20025;-52
2023/11/19 21:57:14;;;;;;;7.68;1.77;;;;;;;9.24;100.00;97770.34;15276953;19;20483;-52
2023/11/19 22:02:39;;;;;;;7.40;1.80;;;;;;;9.08;100.00;97773.88;15269403;19;20015;-54
2023/11/19 22:08:05;;;;;;;9.50;1.95;;;;;;;8.97;100.00;97784.16;15277120;19;20014;-50
2023/11/19 22:13:37;;;;;;;7.35;1.80;;;;;;;8.87;100.00;97795.03;15272896;19;20332;-50
2023/11/19 22:19:02;;;;;;;8.98;2.08;;;;;;;8.79;100.00;97793.16;15275639;19;20021;-52
2023/11/19 22:24:26;;;;;;;10.40;2.20;;;;;;;8.77;100.00;97811.28;15272747;19;20014;-52
2023/11/19 22:29:54;;;;;;;8.57;1.70;;;;;;;8.71;100.00;97818.16;15273813;19;20021;-54
2023/11/19 22:35:19;;;;;;;9.70;1.90;;;;;;;8.67;100.00;97824.03;15271514;19;20015;-53
2023/11/19 22:40:44;;;;;;;12.00;2.15;;;;;;;8.62;100.00;97825.38;15271783;19;20034;-54
2023/11/19 22:46:12;;;;;;;8.90;1.98;;;;;;;8.59;100.00;97832.91;15271440;19;20025;-53
2023/11/19 22:51:38;;;;;;;10.05;2.17;;;;;;;8.56;100.00;97839.44;15271140;19;20101;-53
2023/11/19 22:57:02;;;;;;;7.35;1.90;;;;;;;8.55;100.00;97832.38;15273159;19;20018;-53
2023/11/19 23:02:31;;;;;;;8.23;1.90;;;;;;;8.51;100.00;97824.81;15269445;19;20022;-52
2023/11/19 23:07:55;;;;;;;11.15;2.10;;;;;;;8.49;100.00;97835.75;15282044;19;20074;-53
2023/11/19 23:13:24;;;;;;;10.52;2.00;;;;;;;8.45;100.00;97829.81;15281550;19;20102;-54
2023/11/19 23:18:51;;;;;;;8.48;2.33;;;;;;;8.48;100.00;97839.44;15285836;19;20042;-51
2023/11/19 23:24:16;;;;;;;10.57;1.92;;;;;;;8.46;100.00;97844.06;15029509;19;5001408;-53
2023/11/19 23:29:40;;;;;;;8.68;1.85;;;;;;;8.46;100.00;97846.75;15286077;19;20021;-55
2023/11/19 23:35:09;;;;;;;9.63;2.05;;;;;;;8.45;100.00;97845.94;15287069;19;20014;-51
2023/11/19 23:40:33;;;;;;;12.20;1.77;;;;;;;8.47;100.00;97841.25;15278980;19;20021;-52
2023/11/19 23:45:58;;;;;;;7.45;1.85;;;;;;;8.47;100.00;97832.34;15283884;19;20499;-53
2023/11/19 23:51:25;;;;;;;8.93;1.73;;;;;;;8.46;100.00;97836.03;15282617;19;20022;-54
2023/11/19 23:56:50;;;;;;;10.27;1.90;;;;;;;8.45;100.00;97823.59;15284788;19;20014;-51
